Main page
METAR-TAF:

METAR-TAF

Airports :

Córdoba Airport

Córdoba, Spain

latitude: 37-51N, longitude: 004-51W, elevation: 90 m

Current weather observation

The report was made 28 minutes ago, at 06:30 UTC
Calm wind
Temperature 15°C
Humidity 59%
Pressure 1015 hPa
Visibility 10 km or more
no clouds below 1500 m and no cumulonimbus

METAR: LEBA 240630Z 00000KT CAVOK 15/07 Q1015

Time: 08:58 (06:58 UTC)

Forecast

The report was made 4 hours and 58 minutes ago, at 02:00 UTC
Forecast valid from 24 at 03 UTC to 25 at 03 UTC
Wind 3 kt from variable directions
Visibility 10 km or more
no clouds below 1500 m and no cumulonimbus
Becoming
from 24 at 13 UTC to 24 at 15 UTC
Wind 10 kt from the West
Becoming
from 25 at 01 UTC to 25 at 03 UTC
Wind 3 kt from variable directions

TAF: LEBA 240200Z 2403/2503 VRB03KT CAVOK TX33/2415Z TN11/2405Z BECMG 2413/2415 26010KT BECMG 2501/2503 VRB03KT

Weather observations and forecasts of more than 4000 airports (METAR and TAF reports).

The available stations are represented by yellow and red dots on the map.

Hover mouse over dot to see the name of the station.

Then click to see weather observations and forecasts.

To change the map : click on the green buttons with a black cross to zoom in, on the green button with a dash to zoom out, or on the green arrows for adjacent maps.


METAR-TAF: